Terminal Aerodrome Forecast
Issued by NWS

Home | Current Version | Previous Version | Text Only | Print | Product List | Glossary On
Versions: 1 2 3 4 5 6 7 8 9 10 11 12 13 14 15 16 17 18 19 20 21 22 23 24 25
000
FTUS46 KEKA 040536
TAFCEC
TAF
KCEC 040536Z 0406/0506 34004KT P6SM FEW006 SCT009 OVC013
     FM040900 VRB03KT 6SM BR BKN009
      TEMPO 0409/0412 4SM BR BKN006
     FM041200 VRB03KT 1SM BR OVC002
     FM041600 16004KT P6SM OVC007
     FM041900 21007KT P6SM SCT007 BKN011=

USA.gov is the U.S. government's official web portal to all federal, state and local government web resources and services.